Time;durP1;ratioP1;P1;durP2;ratioP2;P2;SDS_P1;SDS_P2;PMS_P1;PMS_P2;Temp;Humidity;BMP_temperature;BMP_pressure;BME280_temperature;BME280_humidity;BME280_pressure;Samples;Min_cycle;Max_cycle;Signal;HPM_P1;HPM_P2
2022/03/13 00:00:59;;;;;;;19.38;12.32;;;8.70;86.40;;;;;;5027906;28;20045;-82
2022/03/13 00:03:26;;;;;;;19.05;13.35;;;8.70;86.30;;;;;;5017783;28;20060;-82
2022/03/13 00:05:52;;;;;;;16.63;12.57;;;8.70;86.30;;;;;;5021780;28;20054;-82
2022/03/13 00:08:31;;;;;;;19.40;14.02;;;8.70;86.10;;;;;;5044981;28;20037;-82
2022/03/13 00:11:09;;;;;;;18.00;11.52;;;8.70;86.70;;;;;;5028193;28;20041;-82
2022/03/13 00:13:38;;;;;;;19.88;14.38;;;8.60;86.80;;;;;;5011817;28;20045;-82
2022/03/13 00:16:08;;;;;;;19.10;14.05;;;8.60;86.80;;;;;;4995307;28;20134;-83
2022/03/13 00:18:46;;;;;;;16.15;11.73;;;8.60;86.80;;;;;;5020076;28;20133;-82
2022/03/13 00:21:15;;;;;;;18.30;13.50;;;8.60;86.80;;;;;;5012450;28;20052;-82
2022/03/13 00:23:42;;;;;;;17.55;12.38;;;8.60;87.10;;;;;;5005291;28;20049;-82
2022/03/13 00:26:09;;;;;;;18.48;12.73;;;8.60;87.10;;;;;;5022727;28;20122;-82
2022/03/13 00:28:37;;;;;;;18.55;13.18;;;8.70;86.90;;;;;;5020475;28;20437;-83
2022/03/13 00:31:04;;;;;;;16.98;13.27;;;8.60;86.70;;;;;;5011564;28;20553;-83
2022/03/13 00:33:31;;;;;;;18.98;13.57;;;8.60;86.80;;;;;;5011192;28;20574;-82
2022/03/13 00:35:57;;;;;;;19.10;13.35;;;8.60;86.80;;;;;;5027156;28;20057;-83
2022/03/13 00:38:25;;;;;;;21.40;14.43;;;8.60;87.10;;;;;;5027588;28;20140;-82
2022/03/13 00:40:56;;;;;;;24.42;14.77;;;8.60;87.80;;;;;;5011188;28;20051;-82
2022/03/13 00:43:23;;;;;;;15.57;11.93;;;8.60;87.50;;;;;;5028046;28;20045;-83
2022/03/13 00:45:49;;;;;;;18.40;12.90;;;8.60;87.20;;;;;;5010648;28;20045;-82
2022/03/13 00:48:15;;;;;;;15.20;12.48;;;8.60;87.00;;;;;;5027866;28;20045;-82
2022/03/13 00:50:42;;;;;;;20.88;13.85;;;8.60;87.20;;;;;;5009162;28;20100;-82
2022/03/13 00:53:12;;;;;;;18.77;13.27;;;8.60;87.20;;;;;;5010964;28;20053;-82
2022/03/13 00:55:44;;;;;;;17.85;12.20;;;8.60;87.70;;;;;;5011636;28;20700;-83
2022/03/13 00:58:09;;;;;;;20.40;14.35;;;8.60;87.70;;;;;;5010434;28;20507;-82
2022/03/13 01:00:35;;;;;;;17.27;12.77;;;8.60;87.80;;;;;;4988296;28;20370;-82
2022/03/13 01:03:04;;;;;;;17.67;12.60;;;8.50;87.70;;;;;;5011476;28;20132;-83
2022/03/13 01:05:30;;;;;;;19.27;13.30;;;8.50;87.70;;;;;;5043694;28;20128;-82
2022/03/13 01:07:57;;;;;;;21.02;13.75;;;8.50;87.60;;;;;;5011103;28;20049;-82
2022/03/13 01:10:23;;;;;;;17.83;13.00;;;8.50;87.80;;;;;;5001305;28;20685;-82
2022/03/13 01:12:50;;;;;;;19.83;13.60;;;8.50;87.60;;;;;;4999072;28;20140;-83
2022/03/13 01:15:16;;;;;;;20.17;13.05;;;8.50;87.60;;;;;;5025276;28;20049;-82
2022/03/13 01:17:43;;;;;;;20.95;13.05;;;8.50;87.50;;;;;;5027088;28;20049;-82
2022/03/13 01:20:18;;;;;;;22.77;14.77;;;8.50;87.30;;;;;;4994709;28;20049;-82
2022/03/13 01:22:49;;;;;;;19.10;13.23;;;8.50;87.70;;;;;;5026741;28;20139;-82
2022/03/13 01:25:15;;;;;;;16.90;12.43;;;8.50;87.60;;;;;;5026764;28;20049;-83
2022/03/13 01:27:41;;;;;;;16.92;12.85;;;8.50;87.90;;;;;;5016570;28;20259;-82
2022/03/13 01:30:13;;;;;;;19.33;14.25;;;8.60;87.60;;;;;;5027007;28;20551;-83
2022/03/13 01:32:53;;;;;;;18.67;12.75;;;8.60;88.40;;;;;;4995211;28;20367;-83
2022/03/13 01:35:21;;;;;;;21.55;14.00;;;8.50;87.70;;;;;;5030905;28;20053;-82
2022/03/13 01:37:50;;;;;;;20.02;13.27;;;8.60;87.60;;;;;;5028237;28;20502;-83
2022/03/13 01:40:21;;;;;;;19.23;13.38;;;8.60;87.30;;;;;;5012272;28;20049;-83
2022/03/13 01:42:48;;;;;;;20.05;13.20;;;8.60;87.50;;;;;;5026485;28;20149;-82
2022/03/13 01:45:19;;;;;;;16.73;12.93;;;8.60;87.30;;;;;;5028521;28;20065;-82
2022/03/13 01:47:46;;;;;;;20.17;14.57;;;8.60;87.20;;;;;;5023184;28;20053;-83
2022/03/13 01:50:15;;;;;;;18.98;12.93;;;8.70;87.30;;;;;;5004459;28;20145;-83
2022/03/13 01:52:51;;;;;;;20.55;14.02;;;8.70;87.60;;;;;;5026454;28;20160;-83
2022/03/13 01:55:17;;;;;;;17.85;12.95;;;8.70;87.30;;;;;;5029952;28;20340;-83
2022/03/13 01:57:47;;;;;;;19.27;13.50;;;8.70;87.20;;;;;;5009697;28;20049;-83
2022/03/13 02:00:16;;;;;;;18.92;13.88;;;8.70;87.40;;;;;;4994245;28;20130;-83
2022/03/13 02:02:47;;;;;;;18.25;13.40;;;8.70;87.30;;;;;;5012953;28;20061;-83
2022/03/13 02:05:29;;;;;;;20.85;14.35;;;8.70;87.40;;;;;;5010296;28;20390;-83
2022/03/13 02:07:59;;;;;;;16.60;13.00;;;8.70;87.80;;;;;;5022223;28;20520;-83
2022/03/13 02:10:27;;;;;;;20.80;13.80;;;8.70;87.50;;;;;;5029378;28;20076;-83
2022/03/13 02:12:56;;;;;;;20.00;13.68;;;8.70;87.20;;;;;;4992825;28;20051;-82
2022/03/13 02:15:28;;;;;;;20.10;14.30;;;8.80;87.40;;;;;;5014032;28;20514;-84
2022/03/13 02:18:01;;;;;;;22.85;15.45;;;8.70;87.20;;;;;;5024078;28;20052;-82
2022/03/13 02:20:27;;;;;;;22.85;13.65;;;8.70;87.60;;;;;;5030627;28;20081;-83
2022/03/13 02:22:59;;;;;;;23.67;14.25;;;8.70;87.50;;;;;;5002878;28;20064;-82
2022/03/13 02:25:31;;;;;;;21.05;13.85;;;8.70;87.50;;;;;;4986463;28;20498;-82
2022/03/13 02:27:58;;;;;;;19.60;14.50;;;8.70;87.20;;;;;;5025016;28;20056;-82
2022/03/13 02:30:27;;;;;;;17.88;13.35;;;8.70;87.20;;;;;;5028565;28;20045;-82
2022/03/13 02:32:53;;;;;;;21.00;13.30;;;8.70;87.60;;;;;;5013419;28;20133;-82
2022/03/13 02:35:19;;;;;;;20.02;12.68;;;8.70;87.40;;;;;;5012227;28;20088;-84
2022/03/13 02:37:47;;;;;;;21.33;13.45;;;8.70;87.30;;;;;;5007178;28;20137;-83
2022/03/13 02:40:19;;;;;;;15.57;11.85;;;8.70;87.40;;;;;;5025031;28;20458;-82
2022/03/13 02:42:45;;;;;;;20.38;14.07;;;8.70;87.10;;;;;;5018775;28;20550;-82
2022/03/13 02:45:11;;;;;;;20.73;13.82;;;8.70;87.30;;;;;;4996717;28;20084;-82
2022/03/13 02:47:43;;;;;;;19.23;14.18;;;8.70;87.60;;;;;;4991846;28;20101;-82
2022/03/13 02:50:13;;;;;;;18.67;13.93;;;8.70;87.50;;;;;;5023002;28;20572;-82
2022/03/13 02:52:41;;;;;;;19.70;14.30;;;8.70;87.40;;;;;;4998999;28;20053;-82
2022/03/13 02:55:07;;;;;;;16.98;12.30;;;8.70;87.40;;;;;;5029279;28;20053;-82
2022/03/13 02:57:33;;;;;;;20.45;13.88;;;8.70;87.30;;;;;;5029821;28;20466;-83
2022/03/13 02:59:58;;;;;;;28.65;14.20;;;8.70;87.40;;;;;;5026372;28;21082;-82
2022/03/13 03:02:27;;;;;;;20.80;13.90;;;8.70;87.50;;;;;;5001255;28;20084;-83
2022/03/13 03:04:54;;;;;;;18.08;13.23;;;8.70;87.70;;;;;;5014509;28;20116;-82
2022/03/13 03:07:20;;;;;;;17.90;13.07;;;8.70;87.50;;;;;;4996561;28;20037;-82
2022/03/13 03:09:46;;;;;;;18.75;13.75;;;8.70;87.30;;;;;;5010564;28;20045;-82
2022/03/13 03:12:39;;;;;;;18.27;13.80;;;8.70;87.40;;;;;;5000942;28;20108;-82
2022/03/13 03:15:05;;;;;;;21.58;14.30;;;8.70;87.30;;;;;;5015041;28;20320;-83
2022/03/13 03:17:32;;;;;;;20.42;13.48;;;8.70;87.70;;;;;;5014489;28;20045;-82
2022/03/13 03:20:00;;;;;;;19.75;14.13;;;8.70;87.50;;;;;;5014201;28;20570;-82
2022/03/13 03:22:26;;;;;;;16.85;11.95;;;8.70;87.40;;;;;;5038083;28;20041;-82
2022/03/13 03:24:59;;;;;;;19.08;13.35;;;8.70;87.70;;;;;;4980685;28;20053;-82
2022/03/13 03:27:25;;;;;;;18.92;13.70;;;8.70;87.40;;;;;;5036707;28;20041;-82
2022/03/13 03:29:51;;;;;;;19.15;13.55;;;8.70;87.30;;;;;;5029235;28;20041;-82
2022/03/13 03:32:17;;;;;;;19.20;13.20;;;8.70;87.40;;;;;;4981369;28;20607;-83
2022/03/13 03:34:42;;;;;;;17.15;12.07;;;8.70;87.50;;;;;;5031916;28;20144;-82
2022/03/13 03:37:14;;;;;;;18.63;12.13;;;8.70;87.30;;;;;;5014891;28;20061;-82
2022/03/13 03:39:40;;;;;;;18.80;12.90;;;8.80;87.50;;;;;;5031390;28;20350;-82
2022/03/13 03:42:06;;;;;;;16.30;12.40;;;8.80;87.60;;;;;;4984276;28;20056;-83
2022/03/13 03:44:36;;;;;;;19.05;12.93;;;8.80;87.40;;;;;;5029963;28;20045;-82
2022/03/13 03:47:02;;;;;;;18.70;13.02;;;8.80;87.60;;;;;;5010036;28;20038;-82
2022/03/13 03:49:34;;;;;;;19.73;12.00;;;8.80;87.50;;;;;;5027233;28;20064;-82
2022/03/13 03:52:06;;;;;;;18.33;11.63;;;8.80;87.90;;;;;;5001569;28;20136;-82
2022/03/13 03:54:32;;;;;;;19.23;12.85;;;8.80;87.80;;;;;;5023876;28;20490;-82
2022/03/13 03:56:58;;;;;;;17.35;11.82;;;8.80;88.00;;;;;;5011214;28;20048;-82
2022/03/13 03:59:24;;;;;;;19.95;12.55;;;8.80;87.80;;;;;;4999718;28;20045;-82
2022/03/13 04:01:50;;;;;;;16.92;11.60;;;8.80;87.90;;;;;;5027703;28;20421;-82
2022/03/13 04:04:16;;;;;;;16.70;10.60;;;8.80;87.90;;;;;;5029638;28;20053;-77
2022/03/13 04:06:42;;;;;;;18.90;10.82;;;8.80;87.60;;;;;;5024428;28;20537;-78
2022/03/13 04:09:13;;;;;;;18.83;12.63;;;8.80;88.40;;;;;;4997661;28;20129;-78
2022/03/13 04:11:47;;;;;;;17.80;12.07;;;8.80;87.80;;;;;;4998862;28;20588;-78
2022/03/13 04:14:14;;;;;;;19.73;11.93;;;8.70;87.90;;;;;;4981003;28;20045;-78
2022/03/13 04:16:43;;;;;;;19.77;12.90;;;8.80;87.90;;;;;;5014527;28;20042;-84
2022/03/13 04:19:10;;;;;;;14.50;11.23;;;8.70;88.20;;;;;;5018747;28;20405;-82
2022/03/13 04:21:41;;;;;;;16.52;12.15;;;8.70;88.20;;;;;;5006531;28;20140;-78
2022/03/13 04:24:11;;;;;;;14.18;10.80;;;8.70;88.00;;;;;;5000087;28;20053;-78
2022/03/13 04:26:44;;;;;;;15.98;10.77;;;8.70;88.20;;;;;;5010939;28;20751;-78
2022/03/13 04:29:10;;;;;;;16.88;11.90;;;8.70;87.90;;;;;;5028723;28;20544;-78
2022/03/13 04:31:38;;;;;;;17.80;12.25;;;8.70;88.20;;;;;;5025818;28;20037;-78
2022/03/13 04:34:04;;;;;;;19.50;12.90;;;8.70;88.50;;;;;;4996197;28;20595;-77
2022/03/13 04:36:33;;;;;;;20.65;13.70;;;8.70;88.40;;;;;;5026227;28;20448;-78
2022/03/13 04:39:08;;;;;;;20.08;13.23;;;8.70;88.70;;;;;;5026306;28;20136;-78
2022/03/13 04:41:34;;;;;;;18.20;12.90;;;8.60;88.60;;;;;;5026178;28;20084;-77
2022/03/13 04:44:00;;;;;;;16.70;11.60;;;8.60;88.50;;;;;;5028378;28;20052;-78
2022/03/13 04:46:30;;;;;;;19.85;12.88;;;8.60;88.50;;;;;;4990090;28;20054;-78
2022/03/13 04:49:01;;;;;;;17.42;11.82;;;8.60;88.90;;;;;;4993769;28;20060;-78
2022/03/13 04:51:27;;;;;;;19.85;12.75;;;8.60;89.00;;;;;;5025065;28;20204;-78
2022/03/13 04:53:53;;;;;;;20.15;12.35;;;8.60;89.40;;;;;;5027601;28;20051;-78
2022/03/13 04:56:19;;;;;;;19.65;13.43;;;8.50;89.40;;;;;;5010515;28;20476;-82
2022/03/13 04:58:44;;;;;;;17.27;12.48;;;8.50;89.60;;;;;;4989256;28;20121;-83
2022/03/13 05:01:13;;;;;;;17.90;12.63;;;8.50;89.50;;;;;;5026932;28;20053;-78
2022/03/13 05:03:38;;;;;;;22.90;13.15;;;8.50;89.40;;;;;;4994775;28;20049;-78
2022/03/13 05:06:05;;;;;;;17.75;12.10;;;8.50;89.60;;;;;;5014513;28;20053;-78
2022/03/13 05:08:36;;;;;;;21.08;14.20;;;8.50;89.50;;;;;;5046905;28;20123;-78
2022/03/13 05:11:07;;;;;;;15.13;11.13;;;8.50;89.70;;;;;;5019263;28;20041;-78
2022/03/13 05:13:34;;;;;;;15.55;12.85;;;8.50;89.60;;;;;;4987876;28;20049;-78
2022/03/13 05:16:00;;;;;;;14.73;11.25;;;8.50;89.70;;;;;;5030118;28;20040;-78
2022/03/13 05:18:29;;;;;;;19.02;13.35;;;8.40;89.80;;;;;;5010750;28;20053;-78
2022/03/13 05:21:04;;;;;;;18.48;12.48;;;8.40;89.50;;;;;;5006079;28;20459;-78
2022/03/13 05:23:34;;;;;;;16.73;12.40;;;8.40;89.20;;;;;;5004582;28;20085;-79
2022/03/13 05:26:09;;;;;;;20.40;13.70;;;8.40;88.90;;;;;;5027109;28;20383;-78
2022/03/13 05:28:35;;;;;;;16.05;12.30;;;8.40;89.10;;;;;;5010548;28;20156;-79
2022/03/13 05:31:03;;;;;;;17.98;12.75;;;8.40;88.80;;;;;;5026580;28;20050;-78
2022/03/13 05:33:31;;;;;;;18.77;13.02;;;8.40;89.20;;;;;;5010200;28;20517;-78
2022/03/13 05:35:59;;;;;;;19.42;13.55;;;8.40;89.30;;;;;;5010406;28;20354;-78
2022/03/13 05:38:33;;;;;;;16.85;12.70;;;8.40;88.70;;;;;;5026424;28;20133;-78
2022/03/13 05:40:58;;;;;;;16.83;11.80;;;8.40;88.60;;;;;;5001350;28;20782;-78
2022/03/13 05:43:32;;;;;;;23.25;13.88;;;8.40;88.80;;;;;;5010822;28;20120;-78
2022/03/13 05:45:58;;;;;;;16.95;13.23;;;8.40;88.80;;;;;;5012325;28;20084;-78
2022/03/13 05:48:25;;;;;;;17.88;13.98;;;8.30;88.70;;;;;;5013468;28;20045;-78
2022/03/13 05:50:53;;;;;;;17.52;13.85;;;8.40;89.10;;;;;;4999522;28;20063;-78
2022/03/13 05:53:19;;;;;;;20.85;13.77;;;8.40;88.90;;;;;;5013715;28;20037;-79
2022/03/13 05:55:45;;;;;;;20.67;14.40;;;8.40;88.90;;;;;;4981890;28;20119;-78
2022/03/13 05:58:14;;;;;;;20.58;13.27;;;8.40;89.30;;;;;;4987831;28;20124;-78
2022/03/13 06:00:40;;;;;;;19.20;12.68;;;8.30;88.40;;;;;;5030714;28;20112;-78
2022/03/13 06:03:06;;;;;;;18.25;14.05;;;8.30;88.40;;;;;;5013686;28;20046;-79
2022/03/13 06:05:35;;;;;;;20.02;14.90;;;8.30;88.70;;;;;;5030512;28;20045;-78
2022/03/13 06:08:01;;;;;;;19.52;13.82;;;8.30;88.80;;;;;;5027840;28;20045;-78
2022/03/13 06:10:30;;;;;;;20.52;14.10;;;8.30;89.70;;;;;;5014044;28;20520;-79
2022/03/13 06:12:56;;;;;;;18.63;13.80;;;8.30;89.00;;;;;;4998012;28;20071;-79
2022/03/13 06:15:22;;;;;;;17.08;13.20;;;8.30;89.00;;;;;;5030509;28;20489;-78
2022/03/13 06:17:48;;;;;;;18.10;14.85;;;8.30;88.60;;;;;;5030018;28;20063;-79
2022/03/13 06:20:16;;;;;;;16.05;13.88;;;8.30;88.70;;;;;;5013533;28;20501;-78
2022/03/13 06:22:44;;;;;;;19.17;13.65;;;8.30;88.60;;;;;;5029973;28;20048;-78
2022/03/13 06:25:12;;;;;;;19.58;13.88;;;8.30;88.70;;;;;;5030116;28;20207;-79
2022/03/13 06:27:39;;;;;;;19.02;14.30;;;8.30;88.60;;;;;;5003656;28;20046;-78
2022/03/13 06:30:13;;;;;;;20.55;14.70;;;8.30;88.90;;;;;;4997462;28;20402;-78
2022/03/13 06:32:52;;;;;;;21.65;14.75;;;8.20;88.70;;;;;;5030027;28;20092;-78
2022/03/13 06:35:29;;;;;;;22.15;14.90;;;8.20;89.00;;;;;;5012697;28;20212;-78
2022/03/13 06:37:59;;;;;;;19.17;13.48;;;8.20;89.00;;;;;;5029643;28;20045;-78
2022/03/13 06:40:28;;;;;;;19.25;13.95;;;8.20;89.10;;;;;;5030702;28;20513;-78
2022/03/13 06:42:55;;;;;;;19.70;15.32;;;8.20;88.90;;;;;;5020101;28;20136;-78
2022/03/13 06:45:22;;;;;;;29.08;15.15;;;8.10;89.40;;;;;;5011704;28;20050;-79
2022/03/13 06:47:49;;;;;;;18.60;13.55;;;8.20;89.70;;;;;;5028563;28;20061;-78
2022/03/13 06:50:17;;;;;;;22.92;15.73;;;8.10;89.80;;;;;;5029532;28;20187;-78
2022/03/13 06:52:48;;;;;;;20.77;14.50;;;8.10;89.80;;;;;;5004717;28;20045;-78
2022/03/13 06:55:15;;;;;;;19.08;14.25;;;8.10;89.80;;;;;;5029360;28;20132;-78
2022/03/13 06:57:42;;;;;;;18.45;13.85;;;8.10;89.60;;;;;;5009540;28;20053;-78
2022/03/13 07:00:26;;;;;;;21.02;14.38;;;8.10;89.50;;;;;;5024628;28;20421;-78
2022/03/13 07:02:52;;;;;;;20.10;15.40;;;8.10;89.80;;;;;;5004071;28;20438;-78
2022/03/13 07:05:20;;;;;;;21.88;15.20;;;8.10;89.70;;;;;;5045391;28;20115;-78
2022/03/13 07:07:47;;;;;;;20.85;15.82;;;8.00;89.80;;;;;;5024040;28;20049;-78
2022/03/13 07:10:12;;;;;;;18.63;13.93;;;8.00;89.60;;;;;;5021737;28;20462;-78
2022/03/13 07:12:40;;;;;;;20.60;15.35;;;8.00;89.80;;;;;;5020411;28;20041;-78
2022/03/13 07:15:10;;;;;;;19.27;14.13;;;8.00;89.80;;;;;;4997632;28;20520;-78
2022/03/13 07:17:36;;;;;;;17.88;12.82;;;;;;;;;;5002609;28;20509;-78
2022/03/13 07:20:03;;;;;;;23.38;15.75;;;;;;;;;;5028090;28;20263;-78
2022/03/13 07:22:29;;;;;;;20.33;14.20;;;;;;;;;;5020063;28;20092;-78
2022/03/13 07:24:58;;;;;;;20.05;15.27;;;;;;;;;;5025524;28;20057;-78
2022/03/13 07:27:26;;;;;;;22.38;15.50;;;;;;;;;;5025322;28;20255;-78
2022/03/13 07:29:52;;;;;;;21.83;15.77;;;;;;;;;;5027986;28;20196;-78
2022/03/13 07:32:18;;;;;;;22.67;15.75;;;;;;;;;;5011004;28;20133;-82
2022/03/13 07:34:44;;;;;;;25.17;14.68;;;8.00;90.00;;;;;;4993473;28;20054;-81
2022/03/13 07:37:10;;;;;;;18.92;13.95;;;8.00;89.50;;;;;;5028477;28;20061;-79
2022/03/13 07:39:39;;;;;;;18.73;14.15;;;8.00;89.50;;;;;;5021387;28;20056;-80
2022/03/13 07:42:05;;;;;;;16.75;13.25;;;8.00;89.30;;;;;;5001865;28;20046;-79
2022/03/13 07:44:30;;;;;;;20.67;14.45;;;8.00;89.30;;;;;;5017440;28;20050;-79
2022/03/13 07:46:56;;;;;;;17.48;13.70;;;8.00;89.10;;;;;;5032594;28;20044;-79
2022/03/13 07:49:22;;;;;;;21.73;14.32;;;8.00;88.80;;;;;;5021859;28;20041;-81
2022/03/13 07:51:48;;;;;;;18.70;14.48;;;8.00;88.70;;;;;;5014069;28;20159;-81
2022/03/13 07:54:14;;;;;;;22.13;16.10;;;8.00;88.70;;;;;;4994438;28;20045;-81
2022/03/13 07:56:41;;;;;;;16.75;13.55;;;8.00;88.70;;;;;;5037394;28;20055;-78
2022/03/13 07:59:07;;;;;;;18.08;12.90;;;8.00;88.30;;;;;;5044696;28;20450;-78
2022/03/13 08:01:33;;;;;;;16.30;10.75;;;8.00;88.00;;;;;;5022927;28;20121;-79
2022/03/13 08:04:04;;;;;;;15.77;12.00;;;8.00;87.90;;;;;;5015151;28;20076;-78
2022/03/13 08:06:34;;;;;;;19.45;12.60;;;8.00;87.60;;;;;;5012371;28;20049;-78
2022/03/13 08:09:10;;;;;;;18.73;12.77;;;8.00;87.40;;;;;;4991395;28;20057;-78
2022/03/13 08:11:40;;;;;;;17.58;13.05;;;8.00;86.90;;;;;;4990936;28;20053;-78
2022/03/13 08:14:12;;;;;;;18.15;14.27;;;8.00;87.30;;;;;;5026921;28;20048;-77
2022/03/13 08:16:38;;;;;;;15.52;12.85;;;8.00;87.10;;;;;;5028537;28;20053;-78
2022/03/13 08:19:07;;;;;;;17.88;12.32;;;;;;;;;;5012060;28;20057;-78
2022/03/13 08:21:33;;;;;;;17.80;12.57;;;;;;;;;;5011820;28;20046;-79
2022/03/13 08:23:59;;;;;;;19.13;13.43;;;;;;;;;;5022348;28;20054;-78
2022/03/13 08:26:27;;;;;;;19.20;12.38;;;;;;;;;;5018350;28;20045;-79
2022/03/13 08:28:53;;;;;;;18.63;13.32;;;;;;;;;;5010364;28;20079;-79
2022/03/13 08:31:29;;;;;;;18.40;12.85;;;;;;;;;;4989483;28;20526;-78
2022/03/13 08:33:56;;;;;;;21.02;13.05;;;;;;;;;;5019147;28;20045;-78
2022/03/13 08:36:25;;;;;;;21.33;13.32;;;;;;;;;;5025345;28;20048;-81
2022/03/13 08:38:52;;;;;;;18.15;13.27;;;;;;;;;;4983899;28;20498;-82
2022/03/13 08:41:30;;;;;;;17.83;12.48;;;;;;;;;;5030220;28;20112;-81
2022/03/13 08:43:56;;;;;;;20.27;13.30;;;;;;;;;;5024895;28;20148;-81
2022/03/13 08:46:23;;;;;;;19.13;12.05;;;;;;;;;;5043351;28;20051;-81
2022/03/13 08:48:49;;;;;;;19.17;12.30;;;;;;;;;;5027226;28;20049;-81
2022/03/13 08:51:18;;;;;;;22.27;12.73;;;;;;;;;;5028470;28;20049;-81
2022/03/13 08:53:45;;;;;;;19.63;11.95;;;;;;;;;;5004537;28;20069;-81
2022/03/13 08:56:13;;;;;;;20.17;12.32;;;;;;;;;;5055146;28;20438;-81
2022/03/13 08:58:42;;;;;;;15.02;11.20;;;;;;;;;;5044302;28;20136;-81
2022/03/13 09:01:11;;;;;;;16.67;12.15;;;;;;;;;;5035278;28;20053;-82
2022/03/13 09:03:41;;;;;;;19.27;12.15;;;;;;;;;;5036532;28;20046;-81
2022/03/13 09:06:11;;;;;;;15.15;11.35;;;;;;;;;;5018603;28;20061;-78
2022/03/13 09:08:37;;;;;;;19.65;13.20;;;;;;;;;;5023821;28;20095;-80
2022/03/13 09:11:03;;;;;;;18.00;13.00;;;;;;;;;;5028745;28;20148;-80
2022/03/13 09:13:30;;;;;;;18.50;12.70;;;;;;;;;;5019576;28;20139;-82
2022/03/13 09:15:58;;;;;;;17.55;12.23;;;;;;;;;;5001270;28;20156;-81
2022/03/13 09:18:25;;;;;;;17.73;12.60;;;;;;;;;;5001161;28;20044;-78
2022/03/13 09:20:56;;;;;;;16.73;11.65;;;;;;;;;;5040568;28;20081;-79
2022/03/13 09:23:23;;;;;;;15.27;11.13;;;;;;;;;;5018295;28;20498;-78
2022/03/13 09:25:53;;;;;;;16.63;11.80;;;8.00;87.00;;;;;;5019308;28;20049;-78
2022/03/13 09:28:22;;;;;;;16.45;12.18;;;9.20;81.40;;;;;;5023294;28;20413;-78
2022/03/13 09:30:48;;;;;;;15.07;11.50;;;9.20;81.80;;;;;;5024657;28;20053;-78
2022/03/13 09:33:15;;;;;;;16.13;11.32;;;9.30;81.50;;;;;;5011799;28;20118;-81
2022/03/13 09:35:42;;;;;;;17.08;11.52;;;9.40;81.10;;;;;;5027079;28;20148;-80
2022/03/13 09:38:08;;;;;;;14.73;11.45;;;9.40;80.00;;;;;;5050992;28;20469;-80
2022/03/13 09:40:34;;;;;;;15.45;11.32;;;9.40;80.50;;;;;;5028370;28;20045;-80
2022/03/13 09:43:08;;;;;;;14.23;11.05;;;9.40;80.40;;;;;;5002574;28;20099;-81
2022/03/13 09:45:34;;;;;;;16.42;10.63;;;9.50;80.20;;;;;;5026709;28;20409;-82
2022/03/13 09:48:07;;;;;;;14.40;11.52;;;9.60;79.90;;;;;;5030385;28;20041;-81
2022/03/13 09:50:33;;;;;;;16.83;12.35;;;9.60;79.30;;;;;;5019582;28;20179;-80
2022/03/13 09:52:59;;;;;;;16.75;10.88;;;;;;;;;;5028171;28;20140;-81
2022/03/13 09:55:27;;;;;;;16.73;10.90;;;;;;;;;;5022796;28;20382;-80
2022/03/13 09:57:53;;;;;;;18.40;11.90;;;;;;;;;;5003222;28;20196;-81
2022/03/13 10:00:22;;;;;;;15.20;10.40;;;;;;;;;;5025502;28;20049;-80
2022/03/13 10:02:53;;;;;;;17.75;11.15;;;;;;;;;;4996722;28;20056;-80
2022/03/13 10:05:20;;;;;;;17.00;11.82;;;;;;;;;;5008317;28;20057;-81
2022/03/13 10:08:03;;;;;;;14.82;11.75;;;;;;;;;;4993350;28;20629;-81
2022/03/13 10:10:41;;;;;;;15.05;10.75;;;;;;;;;;5017568;28;20065;-80
2022/03/13 10:13:07;;;;;;;18.67;12.60;;;;;;;;;;5013285;28;20136;-80
2022/03/13 10:15:50;;;;;;;17.58;12.25;;;;;;;;;;5009777;28;20358;-81
2022/03/13 10:18:18;;;;;;;16.65;12.00;;;;;;;;;;5026145;28;20131;-81
2022/03/13 10:20:45;;;;;;;17.98;12.82;;;;;;;;;;5018222;28;20170;-81
2022/03/13 10:23:12;;;;;;;17.52;11.23;;;;;;;;;;4993390;28;20136;-81
2022/03/13 10:25:40;;;;;;;14.90;12.18;;;;;;;;;;5025505;28;20359;-81
2022/03/13 10:28:24;;;;;;;15.73;11.10;;;;;;;;;;5024497;28;20050;-81
2022/03/13 10:31:00;;;;;;;15.63;10.68;;;;;;;;;;5012512;28;20081;-81
2022/03/13 10:33:27;;;;;;;17.23;12.07;;;;;;;;;;5028509;28;20095;-81
2022/03/13 10:36:14;;;;;;;15.50;10.93;;;;;;;;;;5021015;28;20053;-81
2022/03/13 10:38:41;;;;;;;14.85;11.70;;;;;;;;;;5029569;28;20061;-81
2022/03/13 10:41:09;;;;;;;16.10;11.73;;;;;;;;;;5029288;28;20378;-81
2022/03/13 10:43:58;;;;;;;17.52;11.88;;;;;;;;;;4997065;28;20052;-81
2022/03/13 10:46:35;;;;;;;15.20;11.57;;;;;;;;;;4971530;28;20052;-81
2022/03/13 10:49:05;;;;;;;17.73;11.90;;;;;;;;;;5021340;28;20191;-81
2022/03/13 10:51:36;;;;;;;17.05;11.93;;;;;;;;;;5012062;28;20144;-81
2022/03/13 10:54:03;;;;;;;14.73;11.82;;;;;;;;;;5029118;28;20514;-81
2022/03/13 10:56:29;;;;;;;17.48;10.63;;;;;;;;;;5012609;28;20170;-81
2022/03/13 10:58:57;;;;;;;17.80;11.27;;;;;;;;;;5012505;28;20053;-80
2022/03/13 11:01:25;;;;;;;18.17;11.35;;;;;;;;;;5002297;28;20081;-81
2022/03/13 11:03:55;;;;;;;16.35;12.02;;;;;;;;;;4973630;28;20134;-80
2022/03/13 11:06:22;;;;;;;19.75;13.30;;;;;;;;;;5009653;28;20061;-81
2022/03/13 11:08:51;;;;;;;18.42;11.95;;;;;;;;;;5028731;28;20116;-81
2022/03/13 11:11:18;;;;;;;17.27;11.30;;;;;;;;;;5012941;28;20085;-81
2022/03/13 11:13:47;;;;;;;14.77;11.90;;;;;;;;;;5034078;28;20044;-81
2022/03/13 11:16:19;;;;;;;19.70;13.00;;;;;;;;;;5041863;28;20565;-81
2022/03/13 11:18:47;;;;;;;17.38;11.88;;;;;;;;;;4996408;28;20057;-81
2022/03/13 11:21:13;;;;;;;15.48;10.85;;;;;;;;;;5032049;28;20095;-82
2022/03/13 11:23:39;;;;;;;16.20;12.45;;;;;;;;;;5017185;28;20038;-82
2022/03/13 11:26:05;;;;;;;16.13;11.98;;;;;;;;;;5009922;28;20128;-83
2022/03/13 11:28:32;;;;;;;18.70;12.55;;;;;;;;;;5007155;28;20045;-82
2022/03/13 11:30:59;;;;;;;19.73;13.10;;;;;;;;;;5034674;28;20084;-83
2022/03/13 11:33:34;;;;;;;17.73;10.95;;;;;;;;;;5030221;28;20042;-82
2022/03/13 11:36:30;;;;;;;16.83;13.48;;;;;;;;;;4994165;28;20049;-82
2022/03/13 11:38:58;;;;;;;16.92;11.50;;;;;;;;;;5009629;28;20045;-82
2022/03/13 11:41:37;;;;;;;16.40;11.90;;;;;;;;;;5000164;28;20588;-83
2022/03/13 11:44:28;;;;;;;16.88;12.10;;;;;;;;;;4974154;28;20062;-82
2022/03/13 11:47:00;;;;;;;18.02;12.40;;;;;;;;;;4943274;28;20093;-82
2022/03/13 11:49:27;;;;;;;15.38;12.27;;;;;;;;;;4964316;28;20050;-82
2022/03/13 11:52:13;;;;;;;16.88;11.32;;;;;;;;;;5006613;28;20561;-82
2022/03/13 11:54:50;;;;;;;15.10;12.48;;;;;;;;;;4969242;28;20152;-82
2022/03/13 11:57:24;;;;;;;17.10;12.48;;;;;;;;;;4977524;28;20052;-82
2022/03/13 12:00:08;;;;;;;16.02;11.90;;;;;;;;;;4981387;28;20046;-82
2022/03/13 12:02:40;;;;;;;19.30;12.30;;;;;;;;;;4965575;28;20079;-82
2022/03/13 12:05:28;;;;;;;18.00;12.43;;;;;;;;;;4982720;28;20235;-82
2022/03/13 12:08:04;;;;;;;18.38;12.20;;;;;;;;;;4957456;28;20046;-81
2022/03/13 12:10:35;;;;;;;16.02;12.18;;;;;;;;;;4975906;28;20113;-81
2022/03/13 12:13:05;;;;;;;15.23;11.85;;;;;;;;;;5006818;28;20068;-81
2022/03/13 12:15:41;;;;;;;17.42;11.18;;;;;;;;;;5008298;28;20188;-81
2022/03/13 12:18:32;;;;;;;14.02;10.80;;;;;;;;;;5011631;28;20060;-81
2022/03/13 12:21:10;;;;;;;15.43;11.43;;;;;;;;;;5024395;28;20061;-80
2022/03/13 12:23:38;;;;;;;19.38;12.60;;;;;;;;;;5026639;28;20045;-81
2022/03/13 12:26:17;;;;;;;13.60;9.93;;;;;;;;;;5026033;28;20052;-80
2022/03/13 12:28:43;;;;;;;18.17;11.38;;;;;;;;;;5028446;28;20079;-80
2022/03/13 12:31:10;;;;;;;14.75;10.18;;;;;;;;;;5034815;28;20064;-81
2022/03/13 12:33:37;;;;;;;15.30;10.45;;;;;;;;;;5024893;28;20033;-81
2022/03/13 12:36:04;;;;;;;14.43;11.30;;;;;;;;;;5010790;28;20148;-80
2022/03/13 12:38:31;;;;;;;15.80;11.40;;;;;;;;;;5027006;28;20158;-80
2022/03/13 12:40:58;;;;;;;16.95;12.32;;;;;;;;;;4992434;28;20162;-80
2022/03/13 12:43:46;;;;;;;17.33;11.38;;;;;;;;;;5026106;28;20045;-79
2022/03/13 12:46:13;;;;;;;15.98;11.10;;;;;;;;;;5007185;28;20057;-79
2022/03/13 12:48:39;;;;;;;15.18;10.82;;;;;;;;;;5010971;28;20096;-78
2022/03/13 12:51:05;;;;;;;12.48;9.60;;;;;;;;;;5027535;28;20069;-78
2022/03/13 12:53:32;;;;;;;13.05;10.00;;;;;;;;;;5023873;28;20125;-79
2022/03/13 12:55:59;;;;;;;16.25;11.65;;;;;;;;;;5011714;28;20041;-78
2022/03/13 12:58:43;;;;;;;16.13;9.73;;;;;;;;;;5025436;28;20037;-78
2022/03/13 13:01:22;;;;;;;13.02;9.32;;;;;;;;;;5023287;28;20369;-78
2022/03/13 13:03:49;;;;;;;13.32;9.82;;;;;;;;;;5015281;28;20376;-78
2022/03/13 13:06:34;;;;;;;12.35;9.15;;;;;;;;;;5032604;28;20115;-78
2022/03/13 13:09:00;;;;;;;12.25;8.57;;;;;;;;;;5026924;28;20041;-78
2022/03/13 13:11:31;;;;;;;11.40;8.15;;;;;;;;;;5030571;28;20469;-78
2022/03/13 13:13:57;;;;;;;11.40;7.78;;;;;;;;;;5028267;28;20049;-77
2022/03/13 13:16:28;;;;;;;14.38;8.82;;;;;;;;;;5023558;28;20060;-78
2022/03/13 13:18:54;;;;;;;9.95;7.63;;;;;;;;;;5025600;28;20056;-78
2022/03/13 13:21:32;;;;;;;14.07;8.38;;;;;;;;;;5026317;28;20497;-79